createdAt,value
2023-03-08T00:01:56.281Z,98964.66
2023-03-08T00:04:22.961Z,98970.59
2023-03-08T00:06:49.505Z,98966.28
2023-03-08T00:09:15.972Z,98963.75
2023-03-08T00:11:42.732Z,98975.00
2023-03-08T00:14:09.187Z,98970.66
2023-03-08T00:16:35.923Z,98970.84
2023-03-08T00:19:02.537Z,98973.56
2023-03-08T00:21:29.151Z,98969.22
2023-03-08T00:23:55.805Z,98968.38
2023-03-08T00:26:22.781Z,98971.75
2023-03-08T00:28:49.368Z,98969.28
2023-03-08T00:31:16.196Z,98970.19
2023-03-08T00:33:42.657Z,98971.94
2023-03-08T00:36:19.373Z,98963.31
2023-03-08T00:38:47.458Z,98954.03
2023-03-08T00:41:14.512Z,98959.25
2023-03-08T00:43:42.354Z,98954.22
2023-03-08T00:46:09.565Z,98952.66
2023-03-08T00:48:36.390Z,98943.97
2023-03-08T00:51:03.766Z,98941.41
2023-03-08T00:53:30.420Z,98946.63
2023-03-08T00:55:59.179Z,98954.28
2023-03-08T00:58:28.553Z,98943.31
2023-03-08T01:00:55.398Z,98948.56
2023-03-08T01:03:23.681Z,98939.94
2023-03-08T01:05:52.494Z,98940.91
2023-03-08T01:08:20.472Z,98935.03
2023-03-08T01:10:51.874Z,98934.31
2023-03-08T01:13:19.578Z,98929.22
2023-03-08T01:15:47.189Z,98937.03
2023-03-08T01:18:14.084Z,98926.84
2023-03-08T01:20:40.822Z,98938.03
2023-03-08T01:23:07.444Z,98937.63
2023-03-08T01:25:33.992Z,98948.88
2023-03-08T01:28:00.595Z,98932.63
2023-03-08T01:30:27.564Z,98931.78
2023-03-08T01:32:54.309Z,98929.94
2023-03-08T01:35:20.874Z,98927.47
2023-03-08T01:37:53.411Z,98917.91
2023-03-08T01:40:21.426Z,98912.91
2023-03-08T01:42:48.592Z,98912.84
2023-03-08T01:45:53.421Z,98908.66
2023-03-08T01:48:27.517Z,98901.72
2023-03-08T01:51:02.880Z,98901.84
2023-03-08T01:53:30.181Z,98920.09
2023-03-08T01:55:57.020Z,98908.75
2023-03-08T01:58:25.141Z,98910.63
2023-03-08T02:00:51.872Z,98902.13
2023-03-08T02:03:18.451Z,98908.03
2023-03-08T02:05:45.313Z,98896.78
2023-03-08T02:08:15.368Z,98901.13
2023-03-08T02:10:43.917Z,98902.06
2023-03-08T02:13:11.622Z,98892.78
2023-03-08T02:15:42.164Z,98887.47
2023-03-08T02:18:09.256Z,98886.78
2023-03-08T02:20:39.208Z,98879.88
2023-03-08T02:23:08.321Z,98877.13
2023-03-08T02:25:34.998Z,98870.34
2023-03-08T02:28:01.740Z,98871.28
2023-03-08T02:30:36.614Z,98871.38
2023-03-08T02:33:23.481Z,98859.31
2023-03-08T02:40:11.804Z,98861.06
2023-03-08T02:42:58.360Z,98848.25
2023-03-08T02:45:45.305Z,98850.09
2023-03-08T02:48:25.966Z,98848.34
2023-03-08T02:50:52.363Z,98848.41
2023-03-08T02:53:18.927Z,98851.84
2023-03-08T02:55:45.355Z,98842.47
2023-03-08T02:58:12.954Z,98839.09
2023-03-08T03:00:40.634Z,98839.16
2023-03-08T03:03:07.146Z,98832.38
2023-03-08T03:05:33.754Z,98832.25
2023-03-08T03:08:04.082Z,98825.34
2023-03-08T03:10:30.947Z,98831.66
2023-03-08T03:12:57.481Z,98826.50
2023-03-08T03:15:28.187Z,98824.81
2023-03-08T03:17:57.890Z,98821.41
2023-03-08T03:20:25.132Z,98817.25
2023-03-08T03:22:51.779Z,98811.13
2023-03-08T03:25:22.284Z,98813.22
2023-03-08T03:27:49.593Z,98804.56
2023-03-08T03:30:17.456Z,98814.84
2023-03-08T03:32:45.144Z,98811.41
2023-03-08T03:35:13.204Z,98810.56
2023-03-08T03:37:40.182Z,98812.41
2023-03-08T03:40:07.571Z,98811.47
2023-03-08T03:42:34.309Z,98811.69
2023-03-08T03:45:09.310Z,98816.00
2023-03-08T03:47:36.500Z,98810.22
2023-03-08T03:50:05.818Z,98808.34
2023-03-08T03:52:42.888Z,98800.16
2023-03-08T03:55:09.818Z,98807.19
2023-03-08T03:57:36.325Z,98797.41
2023-03-08T04:00:04.992Z,98805.31
2023-03-08T04:02:40.679Z,98798.53
2023-03-08T04:05:10.381Z,98801.00
2023-03-08T04:07:37.786Z,98783.66
2023-03-08T04:10:06.056Z,98783.09
2023-03-08T04:12:32.585Z,98786.53
2023-03-08T04:14:58.995Z,98780.28
2023-03-08T04:17:29.417Z,98774.97
2023-03-08T04:19:56.157Z,98772.78
2023-03-08T04:22:22.624Z,98773.66
2023-03-08T04:24:55.737Z,98778.66
2023-03-08T04:27:34.107Z,98783.81
2023-03-08T04:30:00.748Z,98780.19
2023-03-08T04:32:34.510Z,98778.06
2023-03-08T04:35:01.560Z,98765.03
2023-03-08T04:37:30.727Z,98763.22
2023-03-08T04:40:07.257Z,98759.75
2023-03-08T04:42:36.797Z,98757.94
2023-03-08T04:45:03.695Z,98760.66
2023-03-08T04:47:30.299Z,98750.50
2023-03-08T04:49:56.937Z,98750.38
2023-03-08T04:52:24.232Z,98755.53
2023-03-08T04:54:52.123Z,98740.22
2023-03-08T04:57:24.467Z,98748.59
2023-03-08T04:59:54.124Z,98739.22
2023-03-08T05:02:23.167Z,98730.75
2023-03-08T05:04:56.611Z,98726.63
2023-03-08T05:07:23.827Z,98731.84
2023-03-08T05:09:52.839Z,98728.16
2023-03-08T05:12:25.674Z,98727.31
2023-03-08T05:14:58.867Z,98721.38
2023-03-08T05:17:26.676Z,98723.94
2023-03-08T05:19:53.251Z,98712.09
2023-03-08T05:22:25.298Z,98717.25
2023-03-08T05:24:55.184Z,98730.88
2023-03-08T05:27:21.917Z,98731.78
2023-03-08T05:29:51.635Z,98733.63
2023-03-08T05:32:18.285Z,98741.13
2023-03-08T05:34:45.222Z,98731.06
2023-03-08T05:37:18.246Z,98739.44
2023-03-08T05:39:45.605Z,98730.22
2023-03-08T05:42:17.046Z,98731.84
2023-03-08T05:44:46.242Z,98713.78
2023-03-08T05:47:15.813Z,98713.09
2023-03-08T05:49:42.526Z,98712.31
2023-03-08T05:52:10.550Z,98705.19
2023-03-08T05:54:39.652Z,98694.91
2023-03-08T05:57:10.396Z,98699.97
2023-03-08T05:59:37.666Z,98692.06
2023-03-08T06:02:05.329Z,98687.59
2023-03-08T06:04:36.832Z,98675.75
2023-03-08T06:07:03.478Z,98675.69
2023-03-08T06:09:35.599Z,98677.44
2023-03-08T06:12:03.484Z,98678.34
2023-03-08T06:14:30.274Z,98677.56
2023-03-08T06:16:57.570Z,98664.66
2023-03-08T06:19:26.732Z,98662.00
2023-03-08T06:21:55.672Z,98659.25
2023-03-08T06:24:22.744Z,98646.09
2023-03-08T06:26:49.632Z,98649.63
2023-03-08T06:29:16.989Z,98649.56
2023-03-08T06:31:43.951Z,98646.03
2023-03-08T06:34:12.758Z,98642.63
2023-03-08T06:36:39.801Z,98637.34
2023-03-08T06:39:07.121Z,98634.69
2023-03-08T06:41:33.694Z,98631.44
2023-03-08T06:44:02.233Z,98636.59
2023-03-08T06:46:28.901Z,98639.78
2023-03-08T06:48:56.089Z,98650.19
2023-03-08T06:51:23.177Z,98638.16
2023-03-08T06:53:50.124Z,98643.34
2023-03-08T06:56:20.046Z,98635.53
2023-03-08T06:58:46.749Z,98618.34
2023-03-08T07:01:13.799Z,98615.50
2023-03-08T07:03:40.723Z,98611.25
2023-03-08T07:06:09.994Z,98606.00
2023-03-08T07:08:37.764Z,98600.09
2023-03-08T07:11:04.546Z,98606.00
2023-03-08T07:13:30.971Z,98593.94
2023-03-08T07:15:57.777Z,98593.09
2023-03-08T07:18:24.516Z,98591.28
2023-03-08T07:20:57.580Z,98582.41
2023-03-08T07:23:24.643Z,98588.59
2023-03-08T07:25:51.250Z,98583.47
2023-03-08T07:28:18.893Z,98587.50
2023-03-08T07:30:49.973Z,98579.28
2023-03-08T07:33:18.759Z,98581.13
2023-03-08T07:35:45.228Z,98576.44
2023-03-08T07:38:12.454Z,98572.31
2023-03-08T07:40:39.476Z,98565.53
2023-03-08T07:43:06.479Z,98543.91
2023-03-08T07:45:51.711Z,98548.88
2023-03-08T07:48:18.225Z,98550.50
2023-03-08T07:50:44.742Z,98545.31
2023-03-08T07:53:11.166Z,98543.38
2023-03-08T07:55:38.581Z,98533.66
2023-03-08T07:58:05.499Z,98530.59
2023-03-08T08:00:32.134Z,98528.88
2023-03-08T08:02:58.677Z,98530.22
2023-03-08T08:05:25.530Z,98532.28
2023-03-08T08:07:52.799Z,98529.03
2023-03-08T08:10:19.378Z,98523.75
2023-03-08T08:12:45.993Z,98517.78
2023-03-08T08:15:12.844Z,98507.94
2023-03-08T08:17:39.449Z,98501.09
2023-03-08T08:20:08.114Z,98487.97
2023-03-08T08:22:38.086Z,98481.75
2023-03-08T08:25:08.603Z,98474.63
2023-03-08T08:27:36.401Z,98474.63
2023-03-08T08:30:05.410Z,98469.31
2023-03-08T08:32:34.894Z,98460.22
2023-03-08T08:35:01.342Z,98448.56
2023-03-08T08:37:29.109Z,98450.25
2023-03-08T08:39:55.563Z,98445.03
2023-03-08T08:42:22.193Z,98433.72
2023-03-08T08:44:48.888Z,98430.47
2023-03-08T08:47:15.484Z,98421.66
2023-03-08T08:49:42.337Z,98422.22
2023-03-08T08:52:08.756Z,98415.22
2023-03-08T08:54:35.505Z,98408.34
2023-03-08T08:57:01.996Z,98402.63
2023-03-08T08:59:28.824Z,98392.13
2023-03-08T09:01:55.264Z,98386.72
2023-03-08T09:04:21.974Z,98377.41
2023-03-08T09:06:48.811Z,98372.91
2023-03-08T09:09:16.557Z,98367.50
2023-03-08T09:11:54.305Z,98368.16
2023-03-08T09:14:22.086Z,98359.91
2023-03-08T09:16:48.641Z,98363.78
2023-03-08T09:19:15.698Z,98374.69
2023-03-08T09:21:42.448Z,98369.25
2023-03-08T09:24:10.924Z,98353.53
2023-03-08T09:26:37.737Z,98347.38
2023-03-08T09:29:07.985Z,98340.78
2023-03-08T09:31:36.691Z,98341.22
2023-03-08T09:34:09.428Z,98332.31
2023-03-08T09:36:39.332Z,98325.56
2023-03-08T09:39:08.856Z,98325.63
2023-03-08T09:41:58.770Z,98329.56
2023-03-08T09:45:03.138Z,98330.94
2023-03-08T09:47:41.558Z,98307.50
2023-03-08T09:50:25.129Z,98301.81
2023-03-08T09:52:59.959Z,98296.56
2023-03-08T09:55:32.918Z,98313.66
2023-03-08T09:58:11.761Z,98307.00
2023-03-08T10:00:38.531Z,98295.72
2023-03-08T10:03:29.933Z,98295.63
2023-03-08T10:06:15.477Z,98279.94
2023-03-08T10:08:53.714Z,98268.50
2023-03-08T10:11:54.279Z,98263.00
2023-03-08T10:14:35.842Z,98258.28
2023-03-08T10:17:10.163Z,98251.19
2023-03-08T10:19:58.644Z,98257.19
2023-03-08T10:22:31.603Z,98242.31
2023-03-08T10:25:18.363Z,98242.09
2023-03-08T10:27:47.754Z,98257.59
2023-03-08T10:30:17.030Z,98244.69
2023-03-08T10:32:45.960Z,98240.28
2023-03-08T10:35:12.653Z,98253.88
2023-03-08T10:37:39.215Z,98232.31
2023-03-08T10:40:09.847Z,98228.03
2023-03-08T10:42:36.587Z,98229.22
2023-03-08T10:45:12.524Z,98236.28
2023-03-08T10:47:39.207Z,98217.91
2023-03-08T10:50:14.369Z,98227.47
2023-03-08T10:52:41.503Z,98231.66
2023-03-08T10:55:17.033Z,98228.16
2023-03-08T10:57:54.212Z,98222.09
2023-03-08T11:00:20.954Z,98213.19
2023-03-08T11:02:48.555Z,98202.63
2023-03-08T11:05:26.339Z,98208.28
2023-03-08T11:07:55.942Z,98205.22
2023-03-08T11:10:24.742Z,98205.75
2023-03-08T11:13:02.724Z,98200.59
2023-03-08T11:15:32.696Z,98197.72
2023-03-08T11:18:17.844Z,98183.03
2023-03-08T11:20:58.297Z,98201.72
2023-03-08T11:23:35.476Z,98190.53
2023-03-08T11:26:21.470Z,98186.97
2023-03-08T11:29:07.034Z,98197.38
2023-03-08T11:31:33.448Z,98199.13
2023-03-08T11:34:27.840Z,98189.47
2023-03-08T11:37:10.115Z,98189.56
2023-03-08T11:40:13.924Z,98189.34
2023-03-08T11:42:44.946Z,98174.38
2023-03-08T11:45:23.770Z,98177.44
2023-03-08T11:48:12.778Z,98176.63
2023-03-08T11:51:01.091Z,98177.38
2023-03-08T11:53:59.179Z,98184.06
2023-03-08T11:56:42.688Z,98173.72
2023-03-08T11:59:21.308Z,98171.06
2023-03-08T12:01:50.121Z,98165.72
2023-03-08T12:04:22.149Z,98156.16
2023-03-08T12:06:49.194Z,98155.66
2023-03-08T12:09:28.714Z,98163.94
2023-03-08T12:12:06.293Z,98162.03
2023-03-08T12:14:35.174Z,98159.44
2023-03-08T12:17:08.043Z,98155.72
2023-03-08T12:19:42.478Z,98154.34
2023-03-08T12:22:43.997Z,98158.97
2023-03-08T12:25:27.961Z,98153.03
2023-03-08T12:28:17.559Z,98155.13
2023-03-08T12:30:51.915Z,98156.47
2023-03-08T12:33:19.007Z,98151.97
2023-03-08T12:35:55.234Z,98151.72
2023-03-08T12:38:22.071Z,98158.47
2023-03-08T12:40:51.564Z,98145.06
2023-03-08T12:43:21.448Z,98150.72
2023-03-08T12:46:01.826Z,98152.91
2023-03-08T12:48:32.167Z,98136.72
2023-03-08T12:51:22.000Z,98142.84
2023-03-08T12:53:48.937Z,98135.31
2023-03-08T12:56:24.495Z,98116.81
2023-03-08T12:58:57.547Z,98130.09
2023-03-08T13:01:40.167Z,98118.34
2023-03-08T13:04:39.030Z,98126.53
2023-03-08T13:07:06.150Z,98122.81
2023-03-08T13:09:41.993Z,98126.81
2023-03-08T13:12:08.481Z,98133.47
2023-03-08T13:14:44.598Z,98126.19
2023-03-08T13:17:39.318Z,98128.31
2023-03-08T13:20:09.697Z,98133.03
2023-03-08T13:22:55.301Z,98126.66
2023-03-08T13:25:39.871Z,98123.88
2023-03-08T13:28:15.648Z,98126.31
2023-03-08T13:30:54.523Z,98123.03
2023-03-08T13:33:30.649Z,98132.66
2023-03-08T13:36:05.863Z,98128.44
2023-03-08T13:38:37.924Z,98139.06
2023-03-08T13:41:04.578Z,98125.47
2023-03-08T13:43:33.664Z,98120.19
2023-03-08T13:46:11.078Z,98117.84
2023-03-08T13:48:37.949Z,98127.00
2023-03-08T13:51:04.738Z,98133.41
2023-03-08T13:53:37.407Z,98137.84
2023-03-08T13:56:06.118Z,98132.84
2023-03-08T13:58:41.229Z,98139.97
2023-03-08T14:01:19.951Z,98137.59
2023-03-08T14:03:47.291Z,98133.34
2023-03-08T14:06:22.649Z,98108.66
2023-03-08T14:08:50.284Z,98120.25
2023-03-08T14:11:22.881Z,98125.81
2023-03-08T14:13:54.950Z,98128.28
2023-03-08T14:16:33.806Z,98134.56
2023-03-08T14:19:28.860Z,98132.56
2023-03-08T14:22:01.931Z,98131.38
2023-03-08T14:24:31.662Z,98136.19
2023-03-08T14:27:06.548Z,98132.13
2023-03-08T14:29:34.630Z,98131.50
2023-03-08T14:32:10.608Z,98127.28
2023-03-08T14:34:45.318Z,98130.53
2023-03-08T14:37:11.856Z,98129.59
2023-03-08T14:39:47.143Z,98121.63
2023-03-08T14:42:42.839Z,98118.06
2023-03-08T14:45:40.636Z,98101.66
2023-03-08T14:48:33.549Z,98113.69
2023-03-08T14:51:06.114Z,98105.59
2023-03-08T14:53:35.408Z,98103.00
2023-03-08T14:56:12.479Z,98101.97
2023-03-08T14:58:41.703Z,98112.31
2023-03-08T15:01:08.214Z,98110.88
2023-03-08T15:03:35.072Z,98107.13
2023-03-08T15:06:10.758Z,98098.09
2023-03-08T15:08:37.534Z,98096.84
2023-03-08T15:11:04.131Z,98094.91
2023-03-08T15:13:30.604Z,98093.13
2023-03-08T15:15:57.051Z,98089.50
2023-03-08T15:18:23.489Z,98090.72
2023-03-08T15:20:51.591Z,98080.84
2023-03-08T15:23:23.132Z,98075.97
2023-03-08T15:25:50.379Z,98074.69
2023-03-08T15:28:19.570Z,98066.19
2023-03-08T15:30:46.844Z,98070.22
2023-03-08T15:33:13.407Z,98066.38
2023-03-08T15:35:40.661Z,98067.31
2023-03-08T15:38:07.546Z,98069.09
2023-03-08T15:40:34.848Z,98074.72
2023-03-08T15:43:01.572Z,98067.31
2023-03-08T15:45:28.730Z,98061.06
2023-03-08T15:48:00.701Z,98061.69
2023-03-08T15:50:28.610Z,98056.69
2023-03-08T15:52:56.052Z,98043.97
2023-03-08T15:55:25.626Z,98048.66
2023-03-08T15:57:52.397Z,98052.31
2023-03-08T16:00:20.892Z,98054.28
2023-03-08T16:02:47.794Z,98047.31
2023-03-08T16:05:15.760Z,98057.72
2023-03-08T16:07:43.011Z,98054.59
2023-03-08T16:10:13.463Z,98057.25
2023-03-08T16:12:41.248Z,98048.81
2023-03-08T16:15:08.422Z,98048.44
2023-03-08T16:17:35.116Z,98053.75
2023-03-08T16:20:03.458Z,98052.91
2023-03-08T16:22:29.991Z,98043.56
2023-03-08T16:24:56.582Z,98037.94
2023-03-08T16:27:23.032Z,98047.31
2023-03-08T16:29:51.951Z,98057.72
2023-03-08T16:32:19.659Z,98051.69
2023-03-08T16:34:51.145Z,98056.66
2023-03-08T16:37:21.464Z,98050.53
2023-03-08T16:39:52.043Z,98061.78
2023-03-08T16:42:19.031Z,98059.59
2023-03-08T16:44:50.283Z,98069.16
2023-03-08T16:47:17.194Z,98067.72
2023-03-08T16:49:43.730Z,98077.50
2023-03-08T16:52:10.494Z,98078.44
2023-03-08T16:54:36.998Z,98078.88
2023-03-08T16:57:18.308Z,98079.50
2023-03-08T16:59:45.675Z,98076.06
2023-03-08T17:02:18.192Z,98087.31
2023-03-08T17:04:45.710Z,98069.41
2023-03-08T17:07:12.729Z,98073.66
2023-03-08T17:09:39.558Z,98074.19
2023-03-08T17:12:07.127Z,98071.28
2023-03-08T17:14:34.931Z,98070.53
2023-03-08T17:17:01.730Z,98077.63
2023-03-08T17:19:28.365Z,98079.69
2023-03-08T17:21:55.634Z,98077.09
2023-03-08T17:24:22.593Z,98070.97
2023-03-08T17:26:51.034Z,98063.47
2023-03-08T17:29:17.657Z,98063.81
2023-03-08T17:31:44.293Z,98071.59
2023-03-08T17:34:11.021Z,98084.09
2023-03-08T17:36:38.064Z,98087.91
2023-03-08T17:39:04.836Z,98088.03
2023-03-08T17:41:32.429Z,98090.31
2023-03-08T17:43:59.229Z,98086.78
2023-03-08T17:46:29.595Z,98091.16
2023-03-08T17:48:56.440Z,98097.28
2023-03-08T17:51:25.679Z,98091.56
2023-03-08T17:53:52.939Z,98092.09
2023-03-08T17:56:22.274Z,98090.72
2023-03-08T17:58:49.664Z,98083.34
2023-03-08T18:01:28.218Z,98095.94
2023-03-08T18:03:55.292Z,98097.91
2023-03-08T18:06:34.932Z,98095.59
2023-03-08T18:09:06.430Z,98083.72
2023-03-08T18:11:37.715Z,98079.38
2023-03-08T18:14:06.526Z,98080.19
2023-03-08T18:16:33.922Z,98094.66
2023-03-08T18:19:02.351Z,98099.13
2023-03-08T18:21:31.253Z,98097.47
2023-03-08T18:23:58.247Z,98097.06
2023-03-08T18:26:25.659Z,98093.72
2023-03-08T18:28:52.635Z,98095.28
2023-03-08T18:31:23.315Z,98105.38
2023-03-08T18:33:50.885Z,98107.06
2023-03-08T18:36:18.349Z,98109.13
2023-03-08T18:38:44.926Z,98094.16
2023-03-08T18:41:12.728Z,98103.00
2023-03-08T18:43:40.832Z,98096.97
2023-03-08T18:46:10.260Z,98097.34
2023-03-08T18:48:36.943Z,98102.56
2023-03-08T18:51:03.550Z,98089.16
2023-03-08T18:53:30.041Z,98096.84
2023-03-08T18:55:59.075Z,98085.72
2023-03-08T18:58:26.146Z,98089.34
2023-03-08T19:00:54.567Z,98104.13
2023-03-08T19:03:21.165Z,98108.28
2023-03-08T19:05:47.610Z,98109.97
2023-03-08T19:08:14.359Z,98112.47
2023-03-08T19:10:40.826Z,98105.28
2023-03-08T19:13:07.243Z,98106.31
2023-03-08T19:15:38.321Z,98109.66
2023-03-08T19:18:06.003Z,98114.66
2023-03-08T19:20:40.351Z,98121.72
2023-03-08T19:23:08.477Z,98121.91
2023-03-08T19:25:59.390Z,98119.84
2023-03-08T19:28:26.700Z,98111.44
2023-03-08T19:30:53.153Z,98115.59
2023-03-08T19:33:30.380Z,98117.66
2023-03-08T19:35:58.424Z,98133.97
2023-03-08T19:38:24.973Z,98123.59
2023-03-08T19:40:51.484Z,98131.59
2023-03-08T19:43:18.045Z,98145.50
2023-03-08T19:45:49.112Z,98141.69
2023-03-08T19:48:15.597Z,98132.94
2023-03-08T19:50:46.179Z,98123.38
2023-03-08T19:53:12.802Z,98112.69
2023-03-08T19:55:51.199Z,98115.28
2023-03-08T19:58:18.303Z,98130.66
2023-03-08T20:00:45.049Z,98117.66
2023-03-08T20:03:12.901Z,98119.53
2023-03-08T20:05:41.859Z,98121.41
2023-03-08T20:08:08.763Z,98120.59
2023-03-08T20:10:35.284Z,98112.06
2023-03-08T20:13:01.985Z,98107.59
2023-03-08T20:15:28.946Z,98109.25
2023-03-08T20:17:55.555Z,98104.66
2023-03-08T20:20:22.384Z,98112.88
2023-03-08T20:22:49.027Z,98108.53
2023-03-08T20:25:15.698Z,98107.50
2023-03-08T20:27:43.460Z,98106.03
2023-03-08T20:30:11.876Z,98108.72
2023-03-08T20:32:38.823Z,98105.94
2023-03-08T20:35:06.218Z,98106.53
2023-03-08T20:37:32.836Z,98098.13
2023-03-08T20:39:59.438Z,98094.69
2023-03-08T20:42:26.205Z,98097.88
2023-03-08T20:44:52.764Z,98096.34
2023-03-08T20:47:19.613Z,98089.69
2023-03-08T20:49:46.168Z,98097.28
2023-03-08T20:52:12.980Z,98091.16
2023-03-08T20:54:39.413Z,98097.28
2023-03-08T20:57:05.886Z,98104.88
2023-03-08T20:59:32.455Z,98092.94
2023-03-08T21:01:59.042Z,98096.47
2023-03-08T21:04:25.492Z,98098.97
2023-03-08T21:06:53.044Z,98100.50
2023-03-08T21:09:19.558Z,98087.50
2023-03-08T21:11:47.142Z,98085.41
2023-03-08T21:14:13.891Z,98088.22
2023-03-08T21:16:40.538Z,98069.28
2023-03-08T21:19:07.138Z,98066.00
2023-03-08T21:21:39.098Z,98062.56
2023-03-08T21:24:10.124Z,98072.97
2023-03-08T21:26:37.604Z,98067.13
2023-03-08T21:29:06.978Z,98051.94
2023-03-08T21:31:36.259Z,98041.44
2023-03-08T21:34:04.693Z,98038.81
2023-03-08T21:36:31.972Z,98027.38
2023-03-08T21:38:59.462Z,98022.91
2023-03-08T21:41:28.936Z,98044.88
2023-03-08T21:43:56.028Z,98046.44
2023-03-08T21:46:23.392Z,98045.72
2023-03-08T21:48:50.246Z,98051.63
2023-03-08T21:51:16.806Z,98046.81
2023-03-08T21:53:44.386Z,98045.16
2023-03-08T21:56:14.331Z,98044.84
2023-03-08T21:58:40.938Z,98038.16
2023-03-08T22:01:19.953Z,98034.41
2023-03-08T22:03:46.560Z,98033.69
2023-03-08T22:06:13.120Z,98029.31
2023-03-08T22:08:39.627Z,98037.63
2023-03-08T22:11:06.231Z,98028.97
2023-03-08T22:13:32.798Z,98033.34
2023-03-08T22:15:59.397Z,98037.63
2023-03-08T22:18:26.003Z,98037.84
2023-03-08T22:20:56.034Z,98032.53
2023-03-08T22:23:22.527Z,98039.19
2023-03-08T22:25:49.269Z,98034.59
2023-03-08T22:28:15.783Z,98034.13
2023-03-08T22:30:42.443Z,98044.34
2023-03-08T22:33:09.769Z,98023.84
2023-03-08T22:35:36.404Z,98020.09
2023-03-08T22:38:02.828Z,98012.28
2023-03-08T22:40:30.851Z,98005.41
2023-03-08T22:42:57.415Z,98008.50
2023-03-08T22:45:23.982Z,98020.88
2023-03-08T22:47:51.898Z,98001.59
2023-03-08T22:50:18.689Z,97996.38
2023-03-08T22:52:45.291Z,97987.50
2023-03-08T22:55:11.968Z,97977.59
2023-03-08T22:57:38.886Z,97980.09
2023-03-08T23:00:14.068Z,97968.75
2023-03-08T23:02:42.090Z,97951.56
2023-03-08T23:05:12.413Z,97947.41
2023-03-08T23:07:39.039Z,97936.66
2023-03-08T23:10:06.498Z,97929.69
2023-03-08T23:12:33.015Z,97916.06
2023-03-08T23:15:00.101Z,97914.56
2023-03-08T23:17:27.374Z,97922.50
2023-03-08T23:19:53.846Z,97924.88
2023-03-08T23:22:20.598Z,97909.25
2023-03-08T23:24:47.286Z,97904.16
2023-03-08T23:27:13.935Z,97887.59
2023-03-08T23:29:40.691Z,97882.25
2023-03-08T23:32:07.620Z,97881.66
2023-03-08T23:34:34.738Z,97887.59
2023-03-08T23:37:03.934Z,97894.34
2023-03-08T23:39:34.129Z,97904.66
2023-03-08T23:42:00.813Z,97899.78
2023-03-08T23:44:27.772Z,97909.25
2023-03-08T23:46:54.307Z,97923.31
2023-03-08T23:49:21.232Z,97924.97
2023-03-08T23:51:47.682Z,97920.25
2023-03-08T23:54:14.401Z,97924.75
2023-03-08T23:56:41.440Z,97937.06
2023-03-08T23:59:20.641Z,97950.19
